Time;durP1;ratioP1;P1;durP2;ratioP2;P2;SDS_P1;SDS_P2;PMS_P1;PMS_P2;Temp;Humidity;BMP_temperature;BMP_pressure;BME280_temperature;BME280_humidity;BME280_pressure;Samples;Min_cycle;Max_cycle;Signal;HPM_P1;HPM_P2
2020/12/03 00:01:08;;;;;;;3.47;1.20;;;;;;;;;;5033410;28;20107;-68
2020/12/03 00:03:39;;;;;;;4.00;1.70;;;;;;;;;;5033548;28;20029;-67
2020/12/03 00:06:14;;;;;;;8.90;1.98;;;;;;;;;;5033261;28;20013;-66
2020/12/03 00:08:42;;;;;;;4.78;2.00;;;;;;;;;;5032582;28;20064;-63
2020/12/03 00:11:08;;;;;;;4.07;1.40;;;;;;;;;;5033182;28;20025;-65
2020/12/03 00:13:36;;;;;;;4.38;1.38;;;;;;;;;;5033302;28;20068;-64
2020/12/03 00:16:03;;;;;;;7.57;3.00;;;;;;;;;;5030870;28;20033;-65
2020/12/03 00:18:31;;;;;;;6.97;1.40;;;;;;;;;;5033143;28;20025;-64
2020/12/03 00:20:57;;;;;;;4.45;1.35;;;;;;;;;;5033243;28;20032;-64
2020/12/03 00:23:23;;;;;;;3.63;1.35;;;;;;;;;;5032594;28;20022;-65
2020/12/03 00:25:50;;;;;;;6.30;2.70;;;;;;;;;;5031766;28;20060;-63
2020/12/03 00:28:17;;;;;;;6.90;1.70;;;;;;;;;;5033041;28;20036;-62
2020/12/03 00:30:46;;;;;;;4.43;1.90;;;;;;;;;;5032986;28;20551;-64
2020/12/03 00:33:17;;;;;;;4.57;1.48;;;;;;;;;;5032957;28;20025;-63
2020/12/03 00:35:43;;;;;;;5.65;1.42;;;;;;;;;;5032744;28;20033;-63
2020/12/03 00:38:10;;;;;;;5.72;1.60;;;;;;;;;;5031772;28;20036;-61
2020/12/03 00:40:36;;;;;;;6.28;1.67;;;;;;;;;;5032516;28;20097;-62
2020/12/03 00:43:02;;;;;;;4.55;1.33;;;;;;;;;;5032515;28;20061;-64
2020/12/03 00:45:28;;;;;;;7.85;1.77;;;;;;;;;;5033015;28;20021;-65
2020/12/03 00:47:54;;;;;;;6.72;2.95;;;;;;;;;;5032719;28;20032;-66
2020/12/03 00:50:20;;;;;;;5.80;1.80;;;;;;;;;;5032529;28;20033;-65
2020/12/03 00:52:46;;;;;;;6.00;2.67;;;;;;;;;;5032076;28;20087;-66
2020/12/03 00:55:12;;;;;;;7.20;2.17;;;;;;;;;;5031334;28;20134;-63
2020/12/03 00:57:39;;;;;;;5.30;1.90;;;;;;;;;;5032476;28;20029;-62
2020/12/03 01:00:08;;;;;;;5.50;2.03;;;;;;;;;;5032810;28;20144;-63
2020/12/03 01:02:34;;;;;;;6.13;1.55;;;;;;;;;;5032290;28;20476;-63
2020/12/03 01:05:00;;;;;;;7.95;3.13;;;;;;;;;;5032307;28;20070;-63
2020/12/03 01:07:26;;;;;;;7.43;1.65;;;;;;;;;;5032084;28;20025;-62
2020/12/03 01:09:53;;;;;;;4.40;1.70;;;;;;;;;;5032186;28;20021;-62
2020/12/03 01:12:19;;;;;;;11.65;2.20;;;;;;;;;;5032274;28;20175;-64
2020/12/03 01:14:45;;;;;;;7.68;1.63;;;;;;;;;;5032243;28;20057;-63
2020/12/03 01:17:12;;;;;;;3.05;1.90;;;;;;;;;;5032166;28;20052;-62
2020/12/03 01:19:39;;;;;;;4.80;1.77;;;;;;;;;;5032307;28;20385;-63
2020/12/03 01:22:05;;;;;;;7.35;3.20;;;;;;;;;;5031719;28;20030;-63
2020/12/03 01:24:32;;;;;;;7.88;2.22;;;;;;;;;;5032249;28;20034;-63
2020/12/03 01:26:58;;;;;;;3.80;1.50;;;;;;;;;;5032121;28;20041;-65
2020/12/03 01:29:24;;;;;;;6.90;2.00;;;;;;;;;;5032081;28;20032;-66
2020/12/03 01:31:51;;;;;;;5.03;2.20;;;;;;;;;;5030317;28;20293;-70
2020/12/03 01:34:17;;;;;;;5.10;1.90;;;;;;;;;;5030874;28;20026;-65
2020/12/03 01:36:43;;;;;;;4.25;1.73;;;;;;;;;;5031326;28;20038;-67
2020/12/03 01:39:09;;;;;;;3.55;1.35;;;;;;;;;;5031942;28;20053;-64
2020/12/03 01:41:36;;;;;;;4.40;1.95;;;;;;;;;;5032362;28;20429;-66
2020/12/03 01:44:03;;;;;;;4.95;1.50;;;;;;;;;;5032082;28;20083;-63
2020/12/03 01:46:29;;;;;;;4.95;1.55;;;;;;;;;;5032890;28;20025;-65
2020/12/03 01:49:02;;;;;;;4.57;1.90;;;;;;;;;;5032253;28;20105;-65
2020/12/03 01:51:36;;;;;;;9.88;1.83;;;;;;;;;;5032195;28;20416;-64
2020/12/03 01:54:05;;;;;;;4.75;1.98;;;;;;;;;;5032505;28;20029;-65
2020/12/03 01:56:33;;;;;;;4.50;1.85;;;;;;;;;;5032120;28;20076;-66
2020/12/03 01:59:06;;;;;;;4.85;2.40;;;;;;;;;;5031726;28;20512;-64
2020/12/03 02:01:32;;;;;;;9.25;1.95;;;;;;;;;;5030993;28;20045;-66
2020/12/03 02:03:58;;;;;;;9.23;3.00;;;;;;;;;;5030445;28;20029;-65
2020/12/03 02:06:27;;;;;;;7.63;2.22;;;;;;;;;;5029673;28;20473;-66
2020/12/03 02:08:54;;;;;;;6.85;2.35;;;;;;;;;;5029557;28;20535;-67
2020/12/03 02:11:21;;;;;;;4.40;1.88;;;;;;;;;;5029533;28;20033;-64
2020/12/03 02:13:53;;;;;;;4.88;2.15;;;;;;;;;;5029404;28;20022;-63
2020/12/03 02:16:19;;;;;;;4.38;1.92;;;;;;;;;;5029188;28;20033;-63
2020/12/03 02:18:46;;;;;;;6.20;2.40;;;;;;;;;;5029429;28;20022;-65
2020/12/03 02:21:12;;;;;;;6.05;2.13;;;;;;;;;;5030959;28;20495;-64
2020/12/03 02:23:39;;;;;;;5.35;2.70;;;;;;;;;;5031760;28;20021;-63
2020/12/03 02:26:05;;;;;;;7.60;2.25;;;;;;;;;;5031663;28;20025;-64
2020/12/03 02:28:31;;;;;;;5.97;2.10;;;;;;;;;;5031655;28;20018;-64
2020/12/03 02:30:57;;;;;;;8.18;1.90;;;;;;;;;;5030274;28;20508;-64
2020/12/03 02:33:23;;;;;;;5.05;2.17;;;;;;;;;;5031346;28;20034;-64
2020/12/03 02:35:49;;;;;;;8.63;2.22;;;;;;;;;;5031491;28;20033;-66
2020/12/03 02:38:15;;;;;;;6.63;2.40;;;;;;;;;;5031546;28;20490;-63
2020/12/03 02:40:41;;;;;;;4.68;2.08;;;;;;;;;;5033871;28;20108;-64
2020/12/03 02:43:07;;;;;;;7.28;2.80;;;;;;;;;;5034967;28;20022;-62
2020/12/03 02:45:33;;;;;;;5.45;2.50;;;;;;;;;;5035283;28;20021;-62
2020/12/03 02:47:59;;;;;;;7.53;3.22;;;;;;;;;;5034908;28;20115;-62
2020/12/03 02:50:25;;;;;;;6.32;2.65;;;;;;;;;;5034669;28;20029;-63
2020/12/03 02:52:52;;;;;;;4.60;2.42;;;;;;;;;;5034693;28;20030;-62
2020/12/03 02:55:18;;;;;;;4.43;2.28;;;;;;;;;;5034724;28;20052;-61
2020/12/03 02:57:44;;;;;;;7.97;2.72;;;;;;;;;;5034567;28;20056;-62
2020/12/03 03:00:10;;;;;;;9.32;2.88;;;;;;;;;;5035075;28;20493;-63
2020/12/03 03:02:36;;;;;;;6.30;3.20;;;;;;;;;;5034569;28;20075;-63
2020/12/03 03:05:02;;;;;;;4.65;2.65;;;;;;;;;;5034713;28;20025;-64
2020/12/03 03:07:28;;;;;;;7.30;2.30;;;;;;;;;;5034513;28;20037;-62
2020/12/03 03:09:54;;;;;;;7.22;2.45;;;;;;;;;;5034479;28;20021;-62
2020/12/03 03:12:20;;;;;;;10.52;2.70;;;;;;;;;;5034611;28;20032;-63
2020/12/03 03:14:46;;;;;;;11.63;3.33;;;;;;;;;;5034517;28;20025;-63
2020/12/03 03:17:12;;;;;;;10.00;3.03;;;;;;;;;;5034317;28;20029;-62
2020/12/03 03:19:38;;;;;;;7.10;2.47;;;;;;;;;;5034405;28;20116;-63
2020/12/03 03:22:04;;;;;;;6.35;3.00;;;;;;;;;;5034847;28;20462;-63
2020/12/03 03:24:30;;;;;;;4.13;2.47;;;;;;;;;;5033111;28;20025;-62
2020/12/03 03:26:57;;;;;;;7.30;3.35;;;;;;;;;;5034204;28;20497;-63
2020/12/03 03:29:23;;;;;;;5.13;3.03;;;;;;;;;;5034080;28;20124;-62
2020/12/03 03:31:49;;;;;;;7.07;2.30;;;;;;;;;;5034193;28;20036;-63
2020/12/03 03:34:15;;;;;;;10.82;3.20;;;;;;;;;;5034029;28;20025;-64
2020/12/03 03:36:41;;;;;;;5.93;3.40;;;;;;;;;;5034023;28;20500;-65
2020/12/03 03:39:07;;;;;;;5.75;2.55;;;;;;;;;;5034168;28;20033;-63
2020/12/03 03:41:34;;;;;;;3.80;1.80;;;;;;;;;;5034209;28;20025;-63
2020/12/03 03:44:00;;;;;;;5.68;1.98;;;;;;;;;;5034040;28;20053;-63
2020/12/03 03:46:26;;;;;;;5.47;1.70;;;;;;;;;;5033845;28;20363;-63
2020/12/03 03:48:52;;;;;;;3.08;1.50;;;;;;;;;;5033945;28;20102;-64
2020/12/03 03:51:18;;;;;;;4.45;1.98;;;;;;;;;;5033454;28;20533;-63
2020/12/03 03:53:44;;;;;;;7.20;2.15;;;;;;;;;;5033667;28;20025;-64
2020/12/03 03:56:10;;;;;;;6.55;1.73;;;;;;;;;;5033458;28;20037;-64
2020/12/03 03:58:36;;;;;;;5.38;1.77;;;;;;;;;;5033880;28;20036;-66
2020/12/03 04:01:02;;;;;;;4.47;1.65;;;;;;;;;;5036016;22;20057;-58
2020/12/03 04:03:28;;;;;;;3.72;1.63;;;;;;;;;;5013713;28;20080;-60
2020/12/03 04:05:55;;;;;;;2.55;1.35;;;;;;;;;;5013796;28;20022;-60
2020/12/03 04:08:23;;;;;;;3.75;1.80;;;;;;;;;;5013727;28;20478;-60
2020/12/03 04:10:50;;;;;;;3.38;1.50;;;;;;;;;;5013588;28;20054;-60
2020/12/03 04:13:17;;;;;;;4.40;1.55;;;;;;;;;;5013548;28;20033;-60
2020/12/03 04:15:43;;;;;;;3.72;1.70;;;;;;;;;;5013488;28;20026;-60
2020/12/03 04:18:09;;;;;;;3.13;1.33;;;;;;;;;;5013911;28;20121;-60
2020/12/03 04:20:35;;;;;;;2.08;0.90;;;;;;;;;;5013601;28;20025;-65
2020/12/03 04:23:02;;;;;;;5.03;1.90;;;;;;;;;;5012061;28;20470;-59
2020/12/03 04:25:28;;;;;;;6.10;1.50;;;;;;;;;;5013426;28;20022;-60
2020/12/03 04:27:54;;;;;;;4.20;1.50;;;;;;;;;;5012060;28;20029;-59
2020/12/03 04:30:20;;;;;;;3.75;1.63;;;;;;;;;;5013298;28;20026;-60
2020/12/03 04:32:46;;;;;;;5.05;2.15;;;;;;;;;;5011932;28;20033;-59
2020/12/03 04:35:12;;;;;;;4.97;1.55;;;;;;;;;;5013181;28;20433;-59
2020/12/03 04:37:39;;;;;;;5.43;1.40;;;;;;;;;;5013254;28;20441;-59
2020/12/03 04:40:08;;;;;;;3.58;1.42;;;;;;;;;;5013136;28;20060;-59
2020/12/03 04:42:36;;;;;;;6.93;1.70;;;;;;;;;;5012950;28;20021;-60
2020/12/03 04:45:06;;;;;;;4.70;1.80;;;;;;;;;;5012912;28;20068;-58
2020/12/03 04:47:55;;;;;;;4.93;2.28;;;;;;;;;;5013016;28;20033;-59
2020/12/03 04:50:40;;;;;;;3.40;1.98;;;;;;;;;;5011607;28;20424;-59
2020/12/03 04:53:24;;;;;;;3.55;1.95;;;;;;;;;;5013034;28;20493;-60
2020/12/03 04:55:55;;;;;;;4.20;1.80;;;;;;;;;;5012873;28;20044;-62
2020/12/03 04:58:40;;;;;;;5.38;1.85;;;;;;;;;;5012883;28;20030;-60
2020/12/03 05:01:18;;;;;;;3.13;1.92;;;;;;;;;;5042105;22;20105;-64
2020/12/03 05:04:06;;;;;;;3.35;1.48;;;;;;;;;;5031085;28;20381;-67
2020/12/03 05:06:35;;;;;;;5.25;2.03;;;;;;;;;;5031241;28;20021;-64
2020/12/03 05:09:06;;;;;;;6.10;1.80;;;;;;;;;;5030536;28;20026;-63
2020/12/03 05:11:43;;;;;;;2.60;1.50;;;;;;;;;;5030947;28;20247;-63
2020/12/03 05:14:29;;;;;;;8.05;1.73;;;;;;;;;;5032244;28;20028;-62
2020/12/03 05:17:10;;;;;;;6.15;2.05;;;;;;;;;;5029889;28;20049;-62
2020/12/03 05:19:44;;;;;;;4.13;1.65;;;;;;;;;;5031110;28;20083;-62
2020/12/03 05:22:12;;;;;;;5.85;1.80;;;;;;;;;;5031519;28;20033;-64
2020/12/03 05:24:38;;;;;;;4.78;2.03;;;;;;;;;;5030971;28;20025;-65
2020/12/03 05:27:04;;;;;;;3.78;1.67;;;;;;;;;;5030874;28;20057;-63
2020/12/03 05:29:30;;;;;;;5.47;1.95;;;;;;;;;;5031417;28;20370;-64
2020/12/03 05:31:57;;;;;;;2.15;1.30;;;;;;;;;;5031305;28;20385;-64
2020/12/03 05:34:24;;;;;;;3.75;1.65;;;;;;;;;;5031086;28;20444;-64
2020/12/03 05:36:56;;;;;;;3.63;1.73;;;;;;;;;;5031842;28;20111;-64
2020/12/03 05:39:27;;;;;;;4.25;1.75;;;;;;;;;;5032059;28;20533;-63
2020/12/03 05:41:57;;;;;;;3.63;1.50;;;;;;;;;;5031274;28;20480;-63
2020/12/03 05:44:25;;;;;;;3.92;1.92;;;;;;;;;;5030917;28;20045;-63
2020/12/03 05:46:52;;;;;;;4.35;2.08;;;;;;;;;;5031863;28;20544;-63
2020/12/03 05:49:21;;;;;;;2.70;1.67;;;;;;;;;;5030320;28;20032;-62
2020/12/03 05:52:02;;;;;;;4.30;2.00;;;;;;;;;;5030562;28;20079;-62
2020/12/03 05:54:28;;;;;;;8.07;2.22;;;;;;;;;;5030075;28;20489;-62
2020/12/03 05:56:54;;;;;;;2.90;1.70;;;;;;;;;;5031045;28;20034;-61
2020/12/03 05:59:22;;;;;;;8.90;1.90;;;;;;;;;;5030744;28;20079;-62
2020/12/03 06:02:14;;;;;;;6.63;1.88;;;;;;;;;;5031206;28;20064;-62
2020/12/03 06:04:45;;;;;;;4.95;2.00;;;;;;;;;;5028218;28;20123;-62
2020/12/03 06:07:11;;;;;;;6.07;2.58;;;;;;;;;;5029329;28;20018;-62
2020/12/03 06:09:40;;;;;;;7.53;2.47;;;;;;;;;;5030079;28;20083;-64
2020/12/03 06:12:12;;;;;;;9.85;3.40;;;;;;;;;;5030472;28;20436;-62
2020/12/03 06:14:38;;;;;;;7.00;2.75;;;;;;;;;;5032577;28;20462;-62
2020/12/03 06:17:10;;;;;;;7.78;4.35;;;;;;;;;;5034029;28;20398;-63
2020/12/03 06:19:49;;;;;;;11.07;3.67;;;;;;;;;;5035377;28;20025;-63
2020/12/03 06:22:18;;;;;;;6.90;3.42;;;;;;;;;;5034745;28;20485;-63
2020/12/03 06:24:53;;;;;;;6.60;2.42;;;;;;;;;;5034649;28;20428;-64
2020/12/03 06:27:41;;;;;;;6.07;2.45;;;;;;;;;;5034140;28;20033;-64
2020/12/03 06:30:13;;;;;;;5.10;2.10;;;;;;;;;;5034004;28;20030;-63
2020/12/03 06:32:51;;;;;;;5.22;2.55;;;;;;;;;;5034127;28;20119;-63
2020/12/03 06:35:53;;;;;;;8.50;2.75;;;;;;;;;;5033993;28;20480;-63
2020/12/03 06:38:22;;;;;;;7.43;2.25;;;;;;;;;;4972634;28;20034;-63
2020/12/03 06:41:08;;;;;;;3.33;2.20;;;;;;;;;;5022205;28;20044;-61
2020/12/03 06:43:37;;;;;;;7.03;2.40;;;;;;;;;;4993204;28;20385;-63
2020/12/03 06:46:27;;;;;;;9.32;2.63;;;;;;;;;;5033458;28;20029;-62
2020/12/03 06:48:59;;;;;;;7.70;3.30;;;;;;;;;;5034160;28;20104;-62
2020/12/03 06:51:30;;;;;;;9.85;3.10;;;;;;;;;;5034198;28;20341;-63
2020/12/03 06:54:02;;;;;;;7.25;2.58;;;;;;;;;;5031757;28;20182;-62
2020/12/03 06:56:47;;;;;;;7.68;3.03;;;;;;;;;;5032566;28;20045;-62
2020/12/03 06:59:19;;;;;;;6.40;3.38;;;;;;;;;;5031822;28;20481;-62
2020/12/03 07:02:18;;;;;;;7.80;3.75;;;;;;;;;;5031598;28;20049;-62
2020/12/03 07:04:44;;;;;;;;;;;;;;;;;;5001723;28;20119;-61
2020/12/03 07:07:13;;;;;;;6.68;2.63;;;;;;;;;;5033601;28;19905;-65
2020/12/03 07:09:55;;;;;;;8.70;2.97;;;;;;;;;;5031732;28;20505;-60
2020/12/03 07:12:21;;;;;;;12.50;3.47;;;;;;;;;;5032797;28;20061;-60
2020/12/03 07:15:06;;;;;;;7.63;3.20;;;;;;;;;;5033430;28;20033;-61
2020/12/03 07:17:44;;;;;;;11.38;3.90;;;;;;;;;;5033815;28;20084;-58
2020/12/03 07:20:13;;;;;;;8.25;3.10;;;;;;;;;;5032651;28;20091;-58
2020/12/03 07:22:47;;;;;;;10.15;4.07;;;;;;;;;;5032108;28;20040;-59
2020/12/03 07:25:15;;;;;;;8.98;3.17;;;;;;;;;;5031926;28;20072;-60
2020/12/03 07:28:00;;;;;;;14.85;4.07;;;;;;;;;;5032233;28;20025;-60
2020/12/03 07:30:29;;;;;;;16.45;6.78;;;;;;;;;;5032805;28;20034;-60
2020/12/03 07:33:00;;;;;;;12.48;3.85;;;;;;;;;;5032898;28;20547;-61
2020/12/03 07:35:45;;;;;;;11.75;3.72;;;;;;;;;;5032506;28;20108;-61
2020/12/03 07:38:30;;;;;;;15.07;3.80;;;;;;;;;;5030899;28;20381;-60
2020/12/03 07:40:57;;;;;;;12.05;3.88;;;;;;;;;;5031181;28;20048;-60
2020/12/03 07:43:23;;;;;;;10.68;3.63;;;;;;;;;;5029603;28;20060;-60
2020/12/03 07:45:50;;;;;;;4.70;1.92;;;;;;;;;;5031293;28;20029;-61
2020/12/03 07:48:16;;;;;;;4.00;2.28;;;;;;;;;;5032092;28;20026;-60
2020/12/03 07:50:44;;;;;;;6.15;2.90;;;;;;;;;;5033430;28;20033;-60
2020/12/03 07:53:13;;;;;;;11.07;2.95;;;;;;;;;;5030762;28;20438;-61
2020/12/03 07:55:40;;;;;;;6.15;3.15;;;;;;;;;;5032203;28;20041;-62
2020/12/03 07:58:06;;;;;;;6.43;2.97;;;;;;;;;;5032830;28;20026;-61
2020/12/03 08:00:42;;;;;;;8.18;3.75;;;;;;;;;;5023068;28;20129;-60
2020/12/03 08:03:09;;;;;;;9.40;3.95;;;;;;;;;;5012683;28;20036;-60
2020/12/03 08:05:41;;;;;;;11.05;3.58;;;;;;;;;;5012193;28;20036;-60
2020/12/03 08:08:26;;;;;;;10.95;4.45;;;;;;;;;;5012059;28;20088;-61
2020/12/03 08:10:53;;;;;;;9.75;3.60;;;;;;;;;;4994007;28;20474;-60
2020/12/03 08:13:25;;;;;;;9.15;3.45;;;;;;;;;;5012841;28;20046;-60
2020/12/03 08:15:56;;;;;;;8.65;3.85;;;;;;;;;;5012638;28;20084;-61
2020/12/03 08:18:37;;;;;;;9.85;4.05;;;;;;;;;;5013216;28;20030;-60
2020/12/03 08:21:03;;;;;;;12.35;4.72;;;;;;;;;;5012340;28;20430;-59
2020/12/03 08:23:29;;;;;;;12.05;3.45;;;;;;;;;;5011968;28;20026;-61
2020/12/03 08:25:55;;;;;;;10.35;3.95;;;;;;;;;;5010699;28;20064;-60
2020/12/03 08:28:24;;;;;;;17.27;4.00;;;;;;;;;;5013471;28;20022;-61
2020/12/03 08:30:51;;;;;;;7.88;3.45;;;;;;;;;;5011775;28;20034;-61
2020/12/03 08:33:24;;;;;;;7.95;3.17;;;;;;;;;;5013048;28;20422;-60
2020/12/03 08:35:52;;;;;;;12.02;5.22;;;;;;;;;;5012087;28;20112;-61
2020/12/03 08:38:20;;;;;;;17.77;5.10;;;;;;;;;;5010617;28;20113;-61
2020/12/03 08:40:47;;;;;;;5.47;2.63;;;;;;;;;;5010988;28;20125;-63
2020/12/03 08:43:16;;;;;;;7.82;2.80;;;;;;;;;;5011346;28;20098;-61
2020/12/03 08:45:51;;;;;;;6.78;3.10;;;;;;;;;;4995213;28;20033;-62
2020/12/03 08:48:20;;;;;;;8.02;3.20;;;;;;;;;;5011782;28;20033;-63
2020/12/03 08:50:53;;;;;;;8.23;2.88;;;;;;;;;;5011476;28;20043;-62
2020/12/03 08:53:21;;;;;;;9.55;2.42;;;;;;;;;;5013609;28;20069;-66
2020/12/03 08:55:48;;;;;;;11.98;3.85;;;;;;;;;;5012205;28;20034;-64
2020/12/03 08:58:16;;;;;;;11.85;5.63;;;;;;;;;;5012593;28;20045;-63
2020/12/03 09:00:43;;;;;;;11.45;5.10;;;;;;;;;;5012004;28;20146;-64
2020/12/03 09:03:12;;;;;;;11.50;4.70;;;;;;;;;;5013157;28;20033;-65
2020/12/03 09:05:41;;;;;;;16.55;4.63;;;;;;;;;;5012995;28;20080;-66
2020/12/03 09:08:08;;;;;;;9.60;3.70;;;;;;;;;;5013018;28;20038;-64
2020/12/03 09:10:34;;;;;;;11.27;4.82;;;;;;;;;;5013220;28;20021;-69
2020/12/03 09:13:00;;;;;;;14.88;4.63;;;;;;;;;;5012439;28;20470;-69
2020/12/03 09:15:27;;;;;;;10.10;3.40;;;;;;;;;;5012559;28;20022;-69
2020/12/03 09:17:56;;;;;;;8.73;3.40;;;;;;;;;;5012569;28;20095;-69
2020/12/03 09:20:23;;;;;;;8.85;3.55;;;;;;;;;;5013137;28;20064;-70
2020/12/03 09:22:49;;;;;;;10.52;4.20;;;;;;;;;;5013230;28;20109;-69
2020/12/03 09:25:15;;;;;;;11.88;4.43;;;;;;;;;;5012761;28;20487;-70
2020/12/03 09:27:48;;;;;;;10.10;4.18;;;;;;;;;;4995514;28;20030;-68
2020/12/03 09:30:22;;;;;;;6.13;3.75;;;;;;;;;;4995431;28;20026;-69
2020/12/03 09:32:56;;;;;;;11.60;3.80;;;;;;;;;;5012958;28;20436;-69
2020/12/03 09:35:22;;;;;;;7.07;3.70;;;;;;;;;;5013338;28;20080;-69
2020/12/03 09:37:48;;;;;;;8.70;3.70;;;;;;;;;;5013002;28;20061;-68
2020/12/03 09:40:15;;;;;;;5.20;2.88;;;;;;;;;;5012376;28;20036;-67
2020/12/03 09:42:46;;;;;;;10.95;3.47;;;;;;;;;;5012952;28;20538;-64
2020/12/03 09:45:14;;;;;;;14.57;4.22;;;;;;;;;;5012750;28;20107;-66
2020/12/03 09:47:42;;;;;;;9.68;3.97;;;;;;;;;;5012653;28;20041;-65
2020/12/03 09:50:08;;;;;;;17.03;5.87;;;;;;;;;;5016375;28;20034;-68
2020/12/03 09:52:35;;;;;;;11.25;3.85;;;;;;;;;;5017100;28;20030;-68
2020/12/03 09:55:08;;;;;;;8.50;3.33;;;;;;;;;;5016666;28;20029;-72
2020/12/03 09:57:35;;;;;;;20.13;4.40;;;;;;;;;;5017443;28;20042;-73
2020/12/03 10:00:01;;;;;;;88.80;12.98;;;;;;;;;;5021467;28;20860;-72
2020/12/03 10:02:46;;;;;;;10.20;4.65;;;;;;;;;;5037028;28;20112;-73
2020/12/03 10:05:39;;;;;;;23.17;5.03;;;;;;;;;;5036260;28;20088;-72
2020/12/03 10:08:17;;;;;;;19.48;3.90;;;;;;;;;;5038051;28;20057;-72
2020/12/03 10:10:46;;;;;;;11.95;3.60;;;;;;;;;;5042629;28;20033;-74
2020/12/03 10:13:20;;;;;;;12.25;3.08;;;;;;;;;;5054229;28;20041;-75
2020/12/03 10:16:03;;;;;;;8.25;2.53;;;;;;;;;;5054428;28;20030;-72
2020/12/03 10:18:49;;;;;;;12.55;3.65;;;;;;;;;;5055603;28;20047;-79
2020/12/03 10:21:16;;;;;;;8.93;3.40;;;;;;;;;;5042451;28;20021;-78
2020/12/03 10:23:45;;;;;;;9.80;3.90;;;;;;;;;;5039065;28;20537;-75
2020/12/03 10:26:24;;;;;;;19.38;3.85;;;;;;;;;;5037440;28;20044;-77
2020/12/03 10:28:50;;;;;;;;;;;;;;;;;;5037691;28;20428;-77
2020/12/03 10:31:17;;;;;;;9.82;3.90;;;;;;;;;;5037586;28;19905;-73
2020/12/03 10:33:47;;;;;;;10.88;3.42;;;;;;;;;;5037095;28;20080;-73
2020/12/03 10:36:19;;;;;;;66.85;8.07;;;;;;;;;;5035585;28;20033;-74
2020/12/03 10:38:48;;;;;;;17.25;3.75;;;;;;;;;;5036810;28;20104;-73
2020/12/03 10:41:14;;;;;;;9.05;3.75;;;;;;;;;;5036042;28;20033;-73
2020/12/03 10:43:44;;;;;;;8.18;3.30;;;;;;;;;;5036015;28;20112;-73
2020/12/03 10:46:14;;;;;;;9.48;3.63;;;;;;;;;;5037015;28;20034;-73
2020/12/03 10:48:44;;;;;;;15.07;4.93;;;;;;;;;;5036258;28;20018;-74
2020/12/03 10:51:10;;;;;;;10.20;2.92;;;;;;;;;;5036984;28;20029;-76
2020/12/03 10:53:37;;;;;;;6.18;3.10;;;;;;;;;;5035677;28;20108;-75
2020/12/03 10:56:07;;;;;;;7.40;3.00;;;;;;;;;;5037104;28;20041;-72
2020/12/03 11:01:23;;;;;;;6.82;3.00;;;;;;;;;;5038372;28;20080;-77
2020/12/03 11:03:51;;;;;;;8.98;3.20;;;;;;;;;;5037555;28;20021;-77
2020/12/03 11:06:22;;;;;;;57.97;10.23;;;;;;;;;;5036429;28;20021;-76
2020/12/03 11:08:48;;;;;;;29.00;4.55;;;;;;;;;;5042573;28;20093;-77
2020/12/03 11:11:14;;;;;;;14.73;4.03;;;;;;;;;;5040908;28;20026;-73
2020/12/03 11:13:42;;;;;;;13.57;4.25;;;;;;;;;;5039073;28;20025;-77
2020/12/03 11:16:09;;;;;;;25.17;5.22;;;;;;;;;;5048867;28;20029;-77
2020/12/03 11:18:46;;;;;;;20.77;3.83;;;;;;;;;;5045684;28;20036;-76
2020/12/03 11:21:14;;;;;;;128.73;21.52;;;;;;;;;;5037594;28;20029;-76
2020/12/03 11:23:49;;;;;;;35.53;7.53;;;;;;;;;;5036577;28;20060;-76
2020/12/03 11:26:16;;;;;;;30.90;5.65;;;;;;;;;;5036321;28;20127;-77
2020/12/03 11:28:42;;;;;;;14.15;4.55;;;;;;;;;;5036479;28;20036;-77
2020/12/03 11:31:08;;;;;;;6.63;3.30;;;;;;;;;;5036397;28;20029;-76
2020/12/03 11:33:36;;;;;;;10.77;3.05;;;;;;;;;;5036048;28;20048;-77
2020/12/03 11:36:06;;;;;;;5.10;2.90;;;;;;;;;;5035505;28;20032;-76
2020/12/03 11:38:32;;;;;;;8.73;3.45;;;;;;;;;;5035274;28;20044;-77
2020/12/03 11:41:02;;;;;;;5.03;2.17;;;;;;;;;;5034329;28;20026;-77
2020/12/03 11:43:51;;;;;;;7.88;2.17;;;;;;;;;;5035018;28;20056;-78
2020/12/03 11:48:47;;;;;;;;;;;;;;;;;;5035264;28;20112;-76
2020/12/03 11:51:32;;;;;;;3.28;1.67;;;;;;;;;;5034859;28;19912;-76
2020/12/03 11:54:02;;;;;;;7.78;2.00;;;;;;;;;;5035114;28;20025;-77
2020/12/03 11:56:31;;;;;;;5.75;1.63;;;;;;;;;;5033529;28;20033;-77
2020/12/03 11:59:13;;;;;;;4.00;1.27;;;;;;;;;;5034612;28;20462;-76
2020/12/03 12:01:39;;;;;;;5.15;1.77;;;;;;;;;;5034322;28;20049;-76
2020/12/03 12:04:09;;;;;;;56.85;5.30;;;;;;;;;;5034545;28;20029;-75
2020/12/03 12:06:45;;;;;;;13.95;2.45;;;;;;;;;;5034630;28;20041;-76
2020/12/03 12:09:20;;;;;;;3.90;1.80;;;;;;;;;;5034383;28;20037;-76
2020/12/03 12:11:47;;;;;;;2.30;1.10;;;;;;;;;;5034519;28;20029;-77
2020/12/03 12:14:13;;;;;;;25.80;3.67;;;;;;;;;;5034403;28;20033;-75
2020/12/03 12:16:39;;;;;;;9.52;2.45;;;;;;;;;;5033120;28;20190;-76
2020/12/03 12:19:06;;;;;;;8.05;2.22;;;;;;;;;;5035021;28;20032;-77
2020/12/03 12:21:33;;;;;;;4.43;1.50;;;;;;;;;;5035077;28;20485;-75
2020/12/03 12:23:59;;;;;;;6.00;1.48;;;;;;;;;;5035758;28;20056;-76
2020/12/03 12:26:27;;;;;;;8.05;2.58;;;;;;;;;;5035303;28;20051;-78
2020/12/03 12:28:53;;;;;;;5.50;2.17;;;;;;;;;;5034645;28;20462;-77
2020/12/03 12:31:19;;;;;;;3.88;1.90;;;;;;;;;;5034550;28;20389;-73
2020/12/03 12:33:45;;;;;;;5.15;1.75;;;;;;;;;;5033996;28;20163;-77
2020/12/03 12:36:12;;;;;;;6.53;2.38;;;;;;;;;;5032721;28;20083;-76
2020/12/03 12:38:38;;;;;;;5.03;1.90;;;;;;;;;;5034278;28;20028;-77
2020/12/03 12:41:04;;;;;;;5.03;1.90;;;;;;;;;;5034266;28;20029;-78
2020/12/03 12:43:30;;;;;;;5.28;1.67;;;;;;;;;;5034278;28;20030;-77
2020/12/03 12:45:56;;;;;;;5.70;2.10;;;;;;;;;;5034217;28;20029;-77
2020/12/03 12:48:22;;;;;;;23.15;3.90;;;;;;;;;;5032789;28;20389;-77
2020/12/03 12:50:48;;;;;;;163.73;19.15;;;;;;;;;;5034024;28;20191;-77
2020/12/03 12:53:14;;;;;;;7.20;2.45;;;;;;;;;;5033615;28;20040;-77
2020/12/03 12:55:40;;;;;;;10.90;2.97;;;;;;;;;;5033651;28;20424;-77
2020/12/03 12:58:06;;;;;;;5.97;2.28;;;;;;;;;;5033523;28;20040;-77
2020/12/03 13:00:32;;;;;;;4.75;1.90;;;;;;;;;;5031799;28;20045;-76
2020/12/03 13:02:58;;;;;;;4.50;1.75;;;;;;;;;;5031892;28;20033;-77
2020/12/03 13:05:24;;;;;;;6.50;2.70;;;;;;;;;;5033251;28;20021;-77
2020/12/03 13:07:51;;;;;;;7.40;2.72;;;;;;;;;;5033391;28;20026;-77
2020/12/03 13:10:18;;;;;;;6.05;1.70;;;;;;;;;;5032252;28;20019;-77
2020/12/03 13:12:44;;;;;;;6.07;2.10;;;;;;;;;;5032423;28;20141;-77
2020/12/03 13:15:12;;;;;;;3.38;1.40;;;;;;;;;;5033540;28;20394;-77
2020/12/03 13:17:39;;;;;;;6.55;1.88;;;;;;;;;;5033380;28;20038;-75
2020/12/03 13:20:05;;;;;;;8.98;1.75;;;;;;;;;;5031550;28;20021;-71
2020/12/03 13:22:32;;;;;;;5.38;2.00;;;;;;;;;;5031510;28;20393;-70
2020/12/03 13:24:58;;;;;;;6.65;1.77;;;;;;;;;;5031642;28;20113;-71
2020/12/03 13:27:24;;;;;;;4.22;1.80;;;;;;;;;;5031614;28;20056;-69
2020/12/03 13:29:50;;;;;;;4.97;1.75;;;;;;;;;;5030868;28;20108;-70
2020/12/03 13:32:16;;;;;;;6.53;2.30;;;;;;;;;;5032409;28;20029;-71
2020/12/03 13:34:42;;;;;;;3.28;1.58;;;;;;;;;;5031951;28;20048;-73
2020/12/03 13:37:08;;;;;;;4.53;1.88;;;;;;;;;;5032123;28;20041;-70
2020/12/03 13:39:35;;;;;;;7.72;1.70;;;;;;;;;;5032691;28;20021;-71
2020/12/03 13:42:01;;;;;;;4.13;1.67;;;;;;;;;;5032429;28;20086;-72
2020/12/03 13:44:27;;;;;;;5.53;1.83;;;;;;;;;;5031454;28;20018;-69
2020/12/03 13:46:53;;;;;;;3.95;1.65;;;;;;;;;;5031167;28;20025;-71
2020/12/03 13:49:19;;;;;;;4.85;1.58;;;;;;;;;;5031704;28;20386;-72
2020/12/03 13:51:45;;;;;;;2.60;1.05;;;;;;;;;;5032385;28;20108;-71
2020/12/03 13:54:11;;;;;;;3.22;1.20;;;;;;;;;;5032386;28;20059;-71
2020/12/03 13:56:37;;;;;;;3.90;1.30;;;;;;;;;;5032657;28;20042;-68
2020/12/03 13:59:04;;;;;;;4.55;1.55;;;;;;;;;;5032363;28;20028;-77
2020/12/03 14:01:34;;;;;;;8.30;2.15;;;;;;;;;;5030803;28;20221;-71
2020/12/03 14:04:00;;;;;;;6.25;2.00;;;;;;;;;;5032042;28;20022;-70
2020/12/03 14:06:26;;;;;;;3.92;1.20;;;;;;;;;;5032256;28;20385;-69
2020/12/03 14:08:52;;;;;;;4.47;1.02;;;;;;;;;;5032213;28;20056;-70
2020/12/03 14:11:19;;;;;;;8.60;1.80;;;;;;;;;;5032538;28;20025;-70
2020/12/03 14:13:45;;;;;;;3.85;1.63;;;;;;;;;;5030705;28;20022;-70
2020/12/03 14:16:11;;;;;;;8.05;1.75;;;;;;;;;;5031705;28;20405;-71
2020/12/03 14:18:38;;;;;;;2.03;0.88;;;;;;;;;;5028855;28;20052;-61
2020/12/03 14:21:05;;;;;;;6.45;1.58;;;;;;;;;;5031631;28;20037;-71
2020/12/03 14:23:31;;;;;;;42.45;13.02;;;;;;;;;;5032102;28;20470;-72
2020/12/03 14:25:57;;;;;;;17.42;6.68;;;;;;;;;;5032395;28;20034;-72
2020/12/03 14:28:25;;;;;;;20.45;4.60;;;;;;;;;;5032483;28;20116;-72
2020/12/03 14:30:51;;;;;;;6.72;2.28;;;;;;;;;;5032144;28;20025;-71
2020/12/03 14:33:17;;;;;;;15.05;6.68;;;;;;;;;;5032182;28;20020;-68
2020/12/03 14:35:43;;;;;;;15.68;3.42;;;;;;;;;;5032856;28;20351;-72
2020/12/03 14:38:09;;;;;;;48.08;14.18;;;;;;;;;;5035919;28;20393;-68
2020/12/03 14:40:35;;;;;;;8.85;3.05;;;;;;;;;;5035773;28;20219;-70
2020/12/03 14:43:01;;;;;;;3.92;1.08;;;;;;;;;;5035650;28;20021;-70
2020/12/03 14:45:27;;;;;;;5.78;1.00;;;;;;;;;;5035719;28;20057;-70
2020/12/03 14:47:54;;;;;;;11.85;2.63;;;;;;;;;;5034391;28;20163;-69
2020/12/03 14:50:23;;;;;;;5.85;1.30;;;;;;;;;;5035075;28;20033;-69
2020/12/03 14:52:56;;;;;;;2.97;0.82;;;;;;;;;;5035768;28;20033;-68
2020/12/03 14:55:23;;;;;;;2.92;0.95;;;;;;;;;;5033148;28;20021;-70
2020/12/03 14:57:49;;;;;;;5.63;1.02;;;;;;;;;;5030061;28;20037;-73